createdAt,value
2023-05-21T00:01:29.959Z,8.5
2023-05-21T00:04:40.763Z,14.6
2023-05-21T00:06:47.100Z,9.2
2023-05-21T00:08:53.386Z,8.9
2023-05-21T00:13:08.814Z,8.2
2023-05-21T00:17:21.455Z,12
2023-05-21T00:19:27.737Z,9.3
2023-05-21T00:23:40.440Z,10.7
2023-05-21T00:25:46.625Z,5.4
2023-05-21T00:30:02.041Z,13.7
2023-05-21T00:32:08.367Z,4.6
2023-05-21T00:38:27.281Z,10.6
2023-05-21T00:40:33.560Z,8.7
2023-05-21T00:42:42.685Z,5.6
2023-05-21T00:44:48.995Z,17.2
2023-05-21T00:46:55.304Z,13.2
2023-05-21T00:49:01.675Z,6
2023-05-21T00:51:07.906Z,5.4
2023-05-21T00:53:14.258Z,6
2023-05-21T00:55:20.496Z,5.9
2023-05-21T00:57:29.635Z,8.7
2023-05-21T00:59:35.949Z,11.3
2023-05-21T01:01:42.301Z,6.4
2023-05-21T01:02:46.963Z,11.6
2023-05-21T01:04:53.093Z,14.6
2023-05-21T01:06:59.411Z,8.6
2023-05-21T01:15:27.409Z,8.1
2023-05-21T01:19:40.085Z,10.9
2023-05-21T01:21:46.356Z,10
2023-05-21T01:23:52.632Z,9.8
2023-05-21T01:32:20.647Z,6.2
2023-05-21T01:34:26.948Z,6.8
2023-05-21T01:38:39.550Z,13.5
2023-05-21T01:42:54.967Z,15.7
2023-05-21T01:45:01.246Z,8.6
2023-05-21T01:47:07.585Z,7.5
2023-05-21T01:55:35.653Z,8.8
2023-05-21T01:57:41.844Z,7.6
2023-05-21T01:59:48.141Z,14.5
2023-05-21T02:08:30.291Z,15
2023-05-21T02:10:36.579Z,10.8
2023-05-21T02:12:42.901Z,9.3
2023-05-21T02:14:49.191Z,16.4
2023-05-21T02:16:55.509Z,11.3
2023-05-21T02:21:08.073Z,10.1
2023-05-21T02:23:17.209Z,10.4
2023-05-21T02:25:23.483Z,11.9
2023-05-21T02:27:29.777Z,15.3
2023-05-21T02:29:36.076Z,10.6
2023-05-21T02:33:48.685Z,7.7
2023-05-21T02:35:54.960Z,8.9
2023-05-21T02:48:35.548Z,9.4
2023-05-21T02:50:41.861Z,8.4
2023-05-21T02:57:03.564Z,8
2023-05-21T02:58:08.113Z,10.3
2023-05-21T03:00:14.420Z,17.2
2023-05-21T03:08:42.439Z,22.3
2023-05-21T03:10:48.712Z,12.1
2023-05-21T03:17:07.657Z,7.6
2023-05-21T03:21:23.009Z,9.6
2023-05-21T03:23:29.307Z,8.2
2023-05-21T03:25:35.758Z,9.6
2023-05-21T03:27:41.966Z,9.2
2023-05-21T03:29:48.210Z,17.5
2023-05-21T03:31:54.560Z,7.2
2023-05-21T03:38:16.221Z,8.9
2023-05-21T03:40:22.547Z,12.3
2023-05-21T03:42:28.801Z,32.9
2023-05-21T03:44:35.109Z,14.8
2023-05-21T03:53:04.672Z,9.3
2023-05-21T03:55:10.950Z,9.3
2023-05-21T03:56:15.535Z,14.3
2023-05-21T03:58:21.780Z,11.8
2023-05-21T04:04:43.568Z,8.2
2023-05-21T04:06:49.780Z,10.6
2023-05-21T04:08:56.077Z,16.9
2023-05-21T04:11:02.379Z,10.6
2023-05-21T04:13:08.685Z,9.8
2023-05-21T04:15:14.961Z,11.6
2023-05-21T04:19:30.500Z,9.6
2023-05-21T04:21:36.685Z,15.4
2023-05-21T04:23:42.981Z,9.5
2023-05-21T04:25:49.280Z,16.7
2023-05-21T04:27:55.545Z,11.8
2023-05-21T04:30:01.881Z,14.6
2023-05-21T04:40:36.823Z,9.3
2023-05-21T04:44:48.731Z,15
2023-05-21T04:46:55.125Z,16.2
2023-05-21T04:51:10.458Z,19.9
2023-05-21T04:54:21.308Z,11.8
2023-05-21T04:58:33.910Z,14.7
2023-05-21T05:02:49.444Z,13.7
2023-05-21T05:04:55.621Z,9.3
2023-05-21T05:09:08.196Z,12.5
2023-05-21T05:11:14.496Z,11.9
2023-05-21T05:13:20.790Z,12.8
2023-05-21T05:15:27.096Z,19.8
2023-05-21T05:17:36.241Z,8.9
2023-05-21T05:19:42.489Z,13.8
2023-05-21T05:21:48.784Z,9.9
2023-05-21T05:23:55.110Z,12.3
2023-05-21T05:26:01.416Z,11.4
2023-05-21T05:28:07.690Z,16.8
2023-05-21T05:30:13.980Z,27.3
2023-05-21T05:32:23.159Z,11.6
2023-05-21T05:34:29.387Z,14.1
2023-05-21T05:38:41.971Z,13.4
2023-05-21T05:45:00.846Z,9.8
2023-05-21T05:47:09.969Z,13.1
2023-05-21T05:49:16.270Z,8.1
2023-05-21T05:53:48.001Z,10.7
2023-05-21T05:55:54.291Z,14.3
2023-05-21T05:58:00.564Z,13.2
2023-05-21T06:00:09.688Z,14.9
2023-05-21T06:02:16.061Z,11
2023-05-21T06:06:28.629Z,9.3
2023-05-21T06:08:36.128Z,10.2
2023-05-21T06:10:41.227Z,11.1
2023-05-21T06:12:47.524Z,14.8
2023-05-21T06:14:56.655Z,11.3
2023-05-21T06:17:02.956Z,11.6
2023-05-21T06:23:21.840Z,14
2023-05-21T06:27:34.427Z,12.3
2023-05-21T06:31:49.878Z,9.5
2023-05-21T06:33:56.334Z,8.9
2023-05-21T06:36:02.498Z,13.3
2023-05-21T06:38:08.773Z,11.2
2023-05-21T06:40:15.068Z,14.3
2023-05-21T06:42:21.404Z,13.2
2023-05-21T06:44:30.486Z,13
2023-05-21T06:49:47.648Z,21.2
2023-05-21T06:54:00.286Z,13.5
2023-05-21T06:56:06.544Z,21.6
2023-05-21T06:58:15.649Z,12.5
2023-05-21T07:00:21.937Z,14
2023-05-21T07:06:40.818Z,9.9
2023-05-21T07:13:02.524Z,17.4
2023-05-21T07:15:08.816Z,11.1
2023-05-21T07:17:15.113Z,14.6
2023-05-21T07:19:21.475Z,19.1
2023-05-21T07:21:27.717Z,16.4
2023-05-21T07:23:34.015Z,16.9
2023-05-21T07:25:40.285Z,15.1
2023-05-21T07:27:49.454Z,14.3
2023-05-21T07:29:55.728Z,13.7
2023-05-21T07:34:08.315Z,20.8
2023-05-21T07:36:14.602Z,10.5
2023-05-21T07:40:27.194Z,11.3
2023-05-21T07:44:42.597Z,8.9
2023-05-21T07:47:53.503Z,15.3
2023-05-21T07:49:59.765Z,12.8
2023-05-21T07:52:06.058Z,13.8
2023-05-21T08:00:34.045Z,11
2023-05-21T08:04:46.764Z,23.1
2023-05-21T08:06:52.891Z,12.3
2023-05-21T08:08:59.199Z,13.4
2023-05-21T08:11:08.316Z,13.2
2023-05-21T08:13:14.592Z,20
2023-05-21T08:15:20.880Z,25.7
2023-05-21T08:17:27.201Z,9.9
2023-05-21T08:19:33.529Z,10.5
2023-05-21T08:21:39.695Z,8.3
2023-05-21T08:23:45.993Z,15.1
2023-05-21T08:28:01.420Z,6.5
2023-05-21T08:30:07.704Z,17.4
2023-05-21T08:32:14.005Z,10.7
2023-05-21T08:34:20.268Z,19.9
2023-05-21T08:36:26.539Z,12.8
2023-05-21T08:38:32.798Z,12.2
2023-05-21T08:40:39.721Z,13.3
2023-05-21T08:45:56.713Z,9.3
2023-05-21T08:50:09.211Z,11.7
2023-05-21T08:52:15.494Z,12.8
2023-05-21T09:00:43.367Z,11.4
2023-05-21T09:02:49.688Z,8.6
2023-05-21T09:13:23.782Z,9.8
2023-05-21T09:15:30.027Z,7.9
2023-05-21T09:17:36.285Z,16.3
2023-05-21T09:19:42.535Z,9.8
2023-05-21T09:21:48.777Z,10.6
2023-05-21T09:23:57.888Z,11.4
2023-05-21T09:26:04.116Z,7.9
2023-05-21T09:28:10.366Z,13.4
2023-05-21T09:30:16.621Z,10.1
2023-05-21T09:32:22.875Z,10.1
2023-05-21T09:36:35.359Z,13.9
2023-05-21T09:38:44.442Z,14.9
2023-05-21T09:40:50.675Z,11.2
2023-05-21T09:42:56.907Z,9.9
2023-05-21T09:47:28.933Z,9.1
2023-05-21T09:49:35.211Z,9.3
2023-05-21T09:51:45.792Z,15.2
2023-05-21T09:53:52.024Z,21.3
2023-05-21T09:55:58.241Z,11.3
2023-05-21T09:58:04.476Z,13.6
2023-05-21T10:00:10.714Z,16.9
2023-05-21T10:02:16.962Z,8.1
2023-05-21T10:04:23.244Z,13.1
2023-05-21T10:08:38.474Z,13.8
2023-05-21T10:12:50.918Z,8.6
2023-05-21T10:29:43.610Z,19.3
2023-05-21T10:31:50.036Z,13.8
2023-05-21T10:33:56.097Z,11.8
2023-05-21T10:41:22.126Z,15
2023-05-21T10:43:28.364Z,11.7
2023-05-21T10:45:34.620Z,13.8
2023-05-21T10:47:40.793Z,9.7
2023-05-21T10:49:49.874Z,14.6
2023-05-21T10:51:56.091Z,14.9
2023-05-21T11:00:20.972Z,10.9
2023-05-21T11:02:27.259Z,10.8
2023-05-21T11:04:36.280Z,11.7
2023-05-21T11:06:42.471Z,12.5
2023-05-21T11:08:48.650Z,13.7
2023-05-21T11:10:54.898Z,14.7
2023-05-21T11:13:01.096Z,12.3
2023-05-21T11:21:28.772Z,13.9
2023-05-21T11:31:59.808Z,13.2
2023-05-21T11:34:08.865Z,18.9
2023-05-21T11:38:21.276Z,14.1
2023-05-21T11:39:25.803Z,20.6
2023-05-21T11:43:38.169Z,10.2
2023-05-21T11:45:44.362Z,14
2023-05-21T11:56:18.115Z,11.1
2023-05-21T11:58:24.299Z,15.5
2023-05-21T12:00:30.479Z,19.3
2023-05-21T12:02:39.590Z,15.2
2023-05-21T12:15:16.545Z,20.7
2023-05-21T12:17:25.611Z,17.5
2023-05-21T12:19:31.919Z,27.7
2023-05-21T12:21:37.879Z,14.1
2023-05-21T12:23:44.043Z,14.2
2023-05-21T12:25:50.186Z,14.1
2023-05-21T12:27:56.366Z,15.4
2023-05-21T12:30:02.545Z,16.5
2023-05-21T12:36:23.892Z,15.3
2023-05-21T12:37:28.397Z,14
2023-05-21T12:39:34.587Z,16.7
2023-05-21T12:41:40.745Z,17.4
2023-05-21T12:43:46.916Z,19.2
2023-05-21T12:52:14.472Z,18.6
2023-05-21T12:54:20.624Z,14.8
2023-05-21T12:56:26.794Z,18
2023-05-21T12:58:32.959Z,18
2023-05-21T13:00:41.988Z,22.6
2023-05-21T13:02:48.253Z,18.5
2023-05-21T13:07:01.915Z,18.7
2023-05-21T13:09:06.706Z,26.3
2023-05-21T13:13:19.019Z,17.8
2023-05-21T13:15:28.061Z,23.5
2023-05-21T13:17:34.253Z,15.6
2023-05-21T13:19:40.406Z,16.1
2023-05-21T13:21:46.554Z,17.9
2023-05-21T13:23:52.762Z,22.5
2023-05-21T13:25:59.911Z,18.5
2023-05-21T13:28:06.194Z,15.8
2023-05-21T13:30:15.165Z,18
2023-05-21T13:32:21.378Z,14.9
2023-05-21T13:36:53.394Z,14
2023-05-21T13:38:59.581Z,17
2023-05-21T13:41:05.776Z,14.1
2023-05-21T13:43:14.836Z,14.8
2023-05-21T14:02:13.315Z,22.1
2023-05-21T14:04:19.429Z,19.5
2023-05-21T14:06:25.599Z,20.3
2023-05-21T14:08:31.743Z,27
2023-05-21T14:10:38.252Z,17.4
2023-05-21T14:12:46.924Z,24.4
2023-05-21T14:14:53.076Z,21.1
2023-05-21T14:16:59.406Z,17.9
2023-05-21T14:19:05.420Z,18.8
2023-05-21T14:23:17.674Z,26.9
2023-05-21T14:25:23.779Z,12.8
2023-05-21T14:27:32.817Z,17.6
2023-05-21T14:29:38.934Z,15.4
2023-05-21T14:31:45.035Z,23.7
2023-05-21T14:32:49.606Z,23.5
2023-05-21T14:34:55.648Z,18.8
2023-05-21T14:37:01.759Z,17.1
2023-05-21T14:45:28.998Z,16
2023-05-21T14:47:35.152Z,28.1
2023-05-21T14:49:41.163Z,20.8
2023-05-21T14:51:47.274Z,17.8
2023-05-21T14:53:53.311Z,17.2
2023-05-21T14:56:02.298Z,17.6
2023-05-21T14:58:08.329Z,18
2023-05-21T15:00:14.371Z,22.8
2023-05-21T15:02:20.513Z,21.2
2023-05-21T15:06:32.554Z,21
2023-05-21T15:10:47.557Z,19.2
2023-05-21T15:12:53.622Z,15.4
2023-05-21T15:14:59.656Z,13.7
2023-05-21T15:19:11.832Z,15.4
2023-05-21T15:23:23.734Z,24.3
2023-05-21T15:27:38.685Z,22.2
2023-05-21T15:29:44.694Z,20.2
2023-05-21T15:30:49.154Z,18.4
2023-05-21T15:32:55.172Z,17
2023-05-21T15:35:01.274Z,17.3
2023-05-21T15:37:07.184Z,20.5
2023-05-21T15:39:16.079Z,18.9
2023-05-21T15:43:28.089Z,15.7
2023-05-21T15:45:34.105Z,16.5
2023-05-21T15:47:42.446Z,18.1
2023-05-21T15:49:46.077Z,20.7
2023-05-21T15:51:52.052Z,21.5
2023-05-21T15:54:02.532Z,17.5
2023-05-21T15:56:08.434Z,27.5
2023-05-21T15:58:14.410Z,31.6
2023-05-21T16:00:20.388Z,14.7
2023-05-21T16:02:26.420Z,15.9
2023-05-21T16:04:32.332Z,33.4
2023-05-21T16:06:38.286Z,14.5
2023-05-21T16:08:47.190Z,19.1
2023-05-21T16:10:53.130Z,16.7
2023-05-21T16:12:59.112Z,16.4
2023-05-21T16:15:05.073Z,15.4
2023-05-21T16:23:31.823Z,19.4
2023-05-21T16:25:38.143Z,19.1
2023-05-21T16:27:43.752Z,19.4
2023-05-21T16:28:48.150Z,17
2023-05-21T16:35:06.069Z,14.6
2023-05-21T16:37:14.966Z,17.5
2023-05-21T16:39:20.940Z,16.4
2023-05-21T16:41:26.872Z,15.1
2023-05-21T16:43:32.805Z,14.5
2023-05-21T16:45:38.870Z,17.8
2023-05-21T16:47:44.764Z,14.2
2023-05-21T16:49:50.677Z,18.4
2023-05-21T16:56:11.460Z,22.4
2023-05-21T16:58:17.415Z,14.9
2023-05-21T17:00:23.361Z,13
2023-05-21T17:02:29.369Z,15
2023-05-21T17:04:35.263Z,14
2023-05-21T17:06:44.091Z,14.7
2023-05-21T17:13:13.490Z,14.3
2023-05-21T17:17:13.901Z,18.6
2023-05-21T17:21:28.750Z,13.2
2023-05-21T17:23:34.718Z,28.9
2023-05-21T17:25:41.272Z,13.2
2023-05-21T17:28:04.542Z,26.1
2023-05-21T17:32:16.460Z,12.4
2023-05-21T17:42:49.285Z,20.5
2023-05-21T17:44:55.272Z,16.7
2023-05-21T17:47:01.358Z,16.5
2023-05-21T17:51:16.186Z,17.7
2023-05-21T17:53:22.179Z,17.5
2023-05-21T17:57:34.185Z,14.2
2023-05-21T17:59:40.190Z,17.2
2023-05-21T18:03:55.153Z,16.4
2023-05-21T18:06:01.167Z,28.5
2023-05-21T18:10:13.214Z,15.5
2023-05-21T18:12:19.224Z,19.1
2023-05-21T18:14:25.272Z,19.6
2023-05-21T18:18:40.258Z,23.4
2023-05-21T18:22:52.374Z,17.1
2023-05-21T18:23:56.857Z,19.2
2023-05-21T18:26:02.948Z,28.7
2023-05-21T18:28:09.040Z,21.1
2023-05-21T18:30:15.135Z,17.6
2023-05-21T18:32:24.327Z,18.4
2023-05-21T18:34:30.279Z,16.4
2023-05-21T18:36:36.395Z,25.2
2023-05-21T18:40:48.637Z,22.6
2023-05-21T18:42:54.788Z,33.6
2023-05-21T18:45:00.973Z,19.2
2023-05-21T18:47:10.019Z,26
2023-05-21T18:49:16.173Z,21.2
2023-05-21T18:59:47.094Z,23.6
2023-05-21T19:06:08.544Z,22.7
2023-05-21T19:08:14.759Z,25.3
2023-05-21T19:12:27.189Z,24.4
2023-05-21T19:14:33.417Z,35.4
2023-05-21T19:18:48.773Z,28.3
2023-05-21T19:24:06.155Z,36.5
2023-05-21T19:38:52.138Z,32.5
2023-05-21T19:40:58.369Z,35.9
2023-05-21T19:43:04.633Z,31.3
2023-05-21T20:00:00.290Z,34.2
2023-05-21T20:06:19.256Z,45.9
2023-05-21T20:08:25.304Z,30.5
2023-05-21T20:10:31.553Z,34.4
2023-05-21T20:12:37.790Z,31.1
2023-05-21T20:14:46.956Z,36.9
2023-05-21T20:20:03.968Z,33.2
2023-05-21T20:22:10.187Z,28.6
2023-05-21T20:24:16.448Z,42.1
2023-05-21T20:26:22.691Z,32.7
2023-05-21T20:28:31.804Z,32.3
2023-05-21T20:30:38.390Z,42.1
2023-05-21T20:32:44.370Z,30.5
2023-05-21T20:35:01.454Z,42.3
2023-05-21T20:36:56.818Z,35.9
2023-05-21T20:41:09.333Z,30.7
2023-05-21T20:43:18.475Z,43.3
2023-05-21T20:45:24.700Z,30.3
2023-05-21T20:47:31.012Z,40.8
2023-05-21T20:51:43.480Z,38.6
2023-05-21T20:53:49.742Z,28.3
2023-05-21T20:58:05.113Z,30.7
2023-05-21T21:00:11.351Z,30.3
2023-05-21T21:02:17.639Z,38.8
2023-05-21T21:10:42.718Z,33.6
2023-05-21T21:12:51.806Z,37.8
2023-05-21T21:14:58.046Z,38.2
2023-05-21T21:19:30.413Z,29.7
2023-05-21T21:23:42.924Z,35.5
2023-05-21T21:25:52.048Z,32
2023-05-21T21:30:04.575Z,34.6
2023-05-21T21:40:39.085Z,40.5
2023-05-21T21:53:16.348Z,37.3
2023-05-21T21:55:25.478Z,38.1
2023-05-21T21:57:33.338Z,49.2
2023-05-21T21:59:39.575Z,52.3
2023-05-21T22:05:58.414Z,47.4
2023-05-21T22:10:13.774Z,39.2
2023-05-21T22:12:20.054Z,41.5
2023-05-21T22:14:26.335Z,37.2
2023-05-21T22:15:30.913Z,42.6
2023-05-21T22:17:37.225Z,41.3
2023-05-21T22:26:05.140Z,49.2
2023-05-21T22:32:23.921Z,44.3
2023-05-21T22:36:36.460Z,51.4
2023-05-21T22:40:51.864Z,50.8
2023-05-21T22:45:04.371Z,50.5
2023-05-21T22:47:10.686Z,54.5
2023-05-21T22:55:38.589Z,43.9
2023-05-21T22:57:44.875Z,49.8
2023-05-21T22:59:51.153Z,66.1
2023-05-21T23:06:10.010Z,47.9
2023-05-21T23:08:19.096Z,58.4
2023-05-21T23:10:25.388Z,52.7
2023-05-21T23:12:31.653Z,48
2023-05-21T23:26:16.749Z,66
2023-05-21T23:28:23.019Z,59.8
2023-05-21T23:32:35.650Z,56.9
2023-05-21T23:34:41.840Z,58
2023-05-21T23:36:50.967Z,61.9
2023-05-21T23:41:03.513Z,57.3
2023-05-21T23:47:22.368Z,64.8
2023-05-21T23:49:28.663Z,69.5
2023-05-21T23:51:37.732Z,76.3
2023-05-21T23:55:50.315Z,61.4
2023-05-21T23:57:56.571Z,71.1
